TimeCST,TemperatureF,Dew PointF,Humidity,Sea Level PressureIn,VisibilityMPH,Wind Direction,Wind SpeedMPH,Gust SpeedMPH,PrecipitationIn,Events,Conditions,WindDirDegrees,DateUTC
12:15 AM,51.3,36.0,56,29.80,10.0,SW,11.5,-,N/A,,Clear,220,2012-12-16 06:15:00
12:55 AM,51.6,36.0,55,29.79,10.0,SW,12.7,-,N/A,,Clear,220,2012-12-16 06:55:00
1:15 AM,51.3,36.0,56,29.79,10.0,SW,13.8,-,N/A,,Clear,220,2012-12-16 07:15:00
1:35 AM,51.8,36.0,55,29.78,10.0,SW,12.7,-,N/A,,Clear,220,2012-12-16 07:35:00
1:55 AM,51.8,36.0,55,29.78,10.0,SW,10.4,-,N/A,,Clear,230,2012-12-16 07:55:00
2:15 AM,51.6,36.0,55,29.77,10.0,West,8.1,-,N/A,,Clear,260,2012-12-16 08:15:00
2:55 AM,49.5,36.7,61,29.78,10.0,West,6.9,-,N/A,,Clear,260,2012-12-16 08:55:00
3:15 AM,48.7,36.5,63,29.79,10.0,WSW,8.1,-,N/A,,Clear,250,2012-12-16 09:15:00
3:55 AM,48.2,35.4,61,29.79,10.0,SW,6.9,-,N/A,,Clear,220,2012-12-16 09:55:00
4:15 AM,46.4,34.9,64,29.79,10.0,SW,9.2,-,N/A,,Clear,220,2012-12-16 10:15:00
4:35 AM,45.5,34.9,66,29.79,10.0,SSW,6.9,-,N/A,,Clear,210,2012-12-16 10:35:00
4:55 AM,45.0,34.3,66,29.78,10.0,SSW,9.2,-,N/A,,Clear,210,2012-12-16 10:55:00
5:15 AM,44.4,34.3,68,29.79,10.0,SW,11.5,-,N/A,,Clear,220,2012-12-16 11:15:00
5:35 AM,43.2,34.2,71,29.79,10.0,SW,11.5,-,N/A,,Clear,220,2012-12-16 11:35:00
5:55 AM,42.1,34.0,73,29.80,10.0,SW,10.4,-,N/A,,Clear,220,2012-12-16 11:55:00
6:15 AM,42.1,34.0,73,29.79,10.0,SSW,10.4,-,N/A,,Clear,200,2012-12-16 12:15:00
6:35 AM,41.2,33.3,73,29.80,10.0,SSW,9.2,-,N/A,,Clear,200,2012-12-16 12:35:00
6:55 AM,41.0,33.1,73,29.81,10.0,SW,5.8,-,N/A,,Clear,230,2012-12-16 12:55:00
7:15 AM,40.3,32.5,74,29.81,10.0,SW,9.2,-,N/A,,Clear,230,2012-12-16 13:15:00
7:35 AM,39.2,32.4,76,29.81,10.0,SSW,10.4,-,N/A,,Clear,210,2012-12-16 13:35:00
7:55 AM,40.1,32.9,75,29.82,10.0,SW,10.4,-,N/A,,Clear,220,2012-12-16 13:55:00
8:15 AM,40.1,32.9,75,29.82,10.0,SW,11.5,-,N/A,,Clear,220,2012-12-16 14:15:00
8:35 AM,42.4,34.2,72,29.82,10.0,SW,11.5,-,N/A,,Clear,220,2012-12-16 14:35:00
8:55 AM,45.7,35.1,66,29.81,10.0,SSW,11.5,-,N/A,,Clear,210,2012-12-16 14:55:00
9:15 AM,48.6,35.6,61,29.81,10.0,SSW,13.8,-,N/A,,Clear,210,2012-12-16 15:15:00
9:35 AM,51.8,35.8,54,29.80,10.0,SSW,15.0,-,N/A,,Clear,210,2012-12-16 15:35:00
9:55 AM,54.1,35.4,49,29.80,10.0,SW,15.0,-,N/A,,Clear,230,2012-12-16 15:55:00
10:15 AM,56.1,34.7,45,29.79,10.0,SW,13.8,-,N/A,,Clear,220,2012-12-16 16:15:00
10:35 AM,58.3,34.2,40,29.79,10.0,WSW,17.3,-,N/A,,Clear,250,2012-12-16 16:35:00
10:55 AM,60.4,32.9,36,29.78,10.0,WSW,19.6,-,N/A,,Clear,250,2012-12-16 16:55:00
11:15 AM,62.6,32.4,32,29.78,10.0,WSW,19.6,23.0,N/A,,Clear,250,2012-12-16 17:15:00
11:35 AM,64.6,30.9,28,29.77,10.0,West,18.4,-,N/A,,Clear,280,2012-12-16 17:35:00
11:55 AM,66.2,25.3,21,29.76,10.0,West,24.2,-,N/A,,Clear,280,2012-12-16 17:55:00
12:15 PM,66.9,21.9,18,29.75,10.0,West,31.1,39.1,N/A,,Clear,280,2012-12-16 18:15:00
12:35 PM,66.9,19.9,17,29.74,10.0,West,27.6,36.8,N/A,,Clear,280,2012-12-16 18:35:00
12:55 PM,67.6,20.1,16,29.72,10.0,West,25.3,34.5,N/A,,Clear,280,2012-12-16 18:55:00
1:15 PM,68.2,18.3,15,29.72,10.0,West,28.8,33.4,N/A,,Clear,280,2012-12-16 19:15:00
1:35 PM,68.7,18.0,14,29.70,10.0,WNW,27.6,33.4,N/A,,Clear,290,2012-12-16 19:35:00
1:55 PM,68.9,18.0,14,29.70,10.0,WNW,28.8,34.5,N/A,,Clear,290,2012-12-16 19:55:00
2:15 PM,69.1,17.1,14,29.69,10.0,West,26.5,29.9,N/A,,Clear,280,2012-12-16 20:15:00
2:35 PM,68.5,18.0,15,29.69,10.0,West,24.2,-,N/A,,Clear,280,2012-12-16 20:35:00
2:55 PM,67.6,19.8,16,29.70,10.0,West,18.4,-,N/A,,Clear,280,2012-12-16 20:55:00
3:15 PM,67.1,21.6,18,29.69,10.0,WNW,15.0,-,N/A,,Clear,290,2012-12-16 21:15:00
3:35 PM,66.9,21.9,18,29.69,10.0,West,10.4,-,N/A,,Clear,280,2012-12-16 21:35:00
3:55 PM,66.9,22.5,19,29.68,10.0,West,9.2,-,N/A,,Clear,280,2012-12-16 21:55:00
4:15 PM,68.0,20.7,17,29.68,10.0,WNW,8.1,-,N/A,,Clear,290,2012-12-16 22:15:00
4:35 PM,67.3,20.8,17,29.69,10.0,WNW,5.8,-,N/A,,Clear,290,2012-12-16 22:35:00
4:55 PM,65.5,22.6,20,29.69,10.0,WNW,6.9,-,N/A,,Clear,290,2012-12-16 22:55:00
5:15 PM,62.2,24.6,24,29.70,10.0,West,9.2,-,N/A,,Clear,270,2012-12-16 23:15:00
5:35 PM,-9999,-9999,N/A,29.71,10.0,West,18.4,24.2,N/A,,Unknown,280,2012-12-16 23:35:00
5:55 PM,62.4,23.0,22,29.72,10.0,WNW,21.9,28.8,N/A,,Clear,290,2012-12-16 23:55:00
6:15 PM,61.9,24.1,24,29.72,10.0,WNW,18.4,-,N/A,,Clear,290,2012-12-17 00:15:00
6:35 PM,60.8,25.2,26,29.74,10.0,WNW,11.5,-,N/A,,Clear,300,2012-12-17 00:35:00
6:55 PM,59.2,25.9,28,29.74,10.0,NW,10.4,-,N/A,,Clear,310,2012-12-17 00:55:00
7:15 PM,58.1,26.6,30,29.74,10.0,NW,10.4,-,N/A,,Clear,310,2012-12-17 01:15:00
7:35 PM,57.0,26.6,31,29.75,10.0,NW,10.4,-,N/A,,Scattered Clouds,310,2012-12-17 01:35:00
7:55 PM,56.3,27.0,32,29.76,10.0,NW,8.1,-,N/A,,Mostly Cloudy,320,2012-12-17 01:55:00
8:15 PM,55.2,27.1,34,29.76,10.0,North,11.5,-,N/A,,Scattered Clouds,350,2012-12-17 02:15:00
8:35 PM,53.4,29.5,40,29.77,10.0,NNE,8.1,-,N/A,,Clear,30,2012-12-17 02:35:00
8:55 PM,50.5,32.4,50,29.77,10.0,NNE,6.9,-,N/A,,Clear,30,2012-12-17 02:55:00
9:15 PM,48.4,33.1,56,29.77,10.0,NNE,4.6,-,N/A,,Clear,30,2012-12-17 03:15:00
9:35 PM,47.1,33.3,59,29.79,10.0,North,8.1,-,N/A,,Clear,10,2012-12-17 03:35:00
9:55 PM,46.0,33.3,61,29.79,10.0,NNW,5.8,-,N/A,,Clear,330,2012-12-17 03:55:00
10:15 PM,45.0,33.3,64,29.80,10.0,North,6.9,-,N/A,,Clear,350,2012-12-17 04:15:00
10:35 PM,44.8,33.8,65,29.81,10.0,NW,4.6,-,N/A,,Clear,320,2012-12-17 04:35:00
10:55 PM,43.3,33.3,68,29.81,10.0,North,5.8,-,N/A,,Clear,360,2012-12-17 04:55:00
11:15 PM,41.9,33.1,71,29.81,10.0,North,5.8,-,N/A,,Clear,350,2012-12-17 05:15:00
11:35 PM,41.4,33.1,72,29.82,10.0,NNW,8.1,-,N/A,,Clear,340,2012-12-17 05:35:00
11:55 PM,41.2,33.6,74,29.82,10.0,North,6.9,-,N/A,,Clear,350,2012-12-17 05:55:00